Time;durP1;ratioP1;P1;durP2;ratioP2;P2;SDS_P1;SDS_P2;PMS_P1;PMS_P2;Temp;Humidity;BMP_temperature;BMP_pressure;BME280_temperature;BME280_humidity;BME280_pressure;Samples;Min_cycle;Max_cycle;Signal;HPM_P1;HPM_P2
2023/05/10 00:01:45;;;;;;;16.17;14.23;;;;;;;;;;5035470;28;20440;-81
2023/05/10 00:04:12;;;;;;;16.90;13.83;;;;;;;;;;5034793;28;20460;-80
2023/05/10 00:06:38;;;;;;;15.83;13.27;;;;;;;;;;5034244;28;20437;-81
2023/05/10 00:09:05;;;;;;;16.70;14.20;;;;;;;;;;5034637;28;20448;-81
2023/05/10 00:11:31;;;;;;;22.00;14.63;;;;;;;;;;5033308;28;20555;-81
2023/05/10 00:13:57;;;;;;;16.20;13.40;;;;;;;;;;5034190;28;20460;-81
2023/05/10 00:16:24;;;;;;;12.80;11.27;;;;;;;;;;5033330;28;20568;-81
2023/05/10 00:18:50;;;;;;;18.33;14.53;;;;;;;;;;5034357;28;20830;-81
2023/05/10 00:21:18;;;;;;;15.80;13.83;;;;;;;;;;5033384;28;20479;-81
2023/05/10 00:23:44;;;;;;;16.43;13.50;;;;;;;;;;5034190;28;20452;-81
2023/05/10 00:26:11;;;;;;;16.10;13.27;;;;;;;;;;5033728;28;20476;-81
2023/05/10 00:28:37;;;;;;;15.83;13.97;;;;;;;;;;5034525;28;21008;-81
2023/05/10 00:31:04;;;;;;;16.67;14.10;;;;;;;;;;5033243;28;20476;-80
2023/05/10 00:33:30;;;;;;;14.67;12.73;;;;;;;;;;5036491;28;20445;-81
2023/05/10 00:35:57;;;;;;;16.40;14.20;;;;;;;;;;5033099;28;20477;-81
2023/05/10 00:38:24;;;;;;;15.27;12.90;;;;;;;;;;5033771;28;20470;-81
2023/05/10 00:40:50;;;;;;;15.07;12.83;;;;;;;;;;5030555;28;20480;-81
2023/05/10 00:43:17;;;;;;;14.60;12.80;;;;;;;;;;5035490;28;20492;-81
2023/05/10 00:45:43;;;;;;;17.50;14.13;;;;;;;;;;5032801;28;20472;-81
2023/05/10 00:48:10;;;;;;;14.17;12.67;;;;;;;;;;5033186;28;20477;-81
2023/05/10 00:50:36;;;;;;;20.50;15.33;;;;;;;;;;5031850;28;20481;-81
2023/05/10 00:53:03;;;;;;;14.87;12.30;;;;;;;;;;5033176;28;20788;-81
2023/05/10 00:55:31;;;;;;;16.07;13.40;;;;;;;;;;5030850;28;20908;-81
2023/05/10 00:57:57;;;;;;;17.73;14.90;;;;;;;;;;5033386;28;20491;-81
2023/05/10 01:00:24;;;;;;;14.03;12.57;;;;;;;;;;5031985;28;21002;-80
2023/05/10 01:02:50;;;;;;;18.93;14.57;;;;;;;;;;5026051;28;20424;-81
2023/05/10 01:05:16;;;;;;;15.60;13.90;;;;;;;;;;5032305;28;20475;-81
2023/05/10 01:07:42;;;;;;;13.13;11.67;;;;;;;;;;5035147;28;20476;-81
2023/05/10 01:10:10;;;;;;;18.83;15.00;;;;;;;;;;5027246;28;20481;-81
2023/05/10 01:12:39;;;;;;;25.03;16.93;;;;;;;;;;5030674;28;20487;-81
2023/05/10 01:15:07;;;;;;;18.50;16.40;;;;;;;;;;5032692;28;20472;-81
2023/05/10 01:17:34;;;;;;;22.40;15.87;;;;;;;;;;5033326;28;20560;-81
2023/05/10 01:20:00;;;;;;;19.70;16.10;;;;;;;;;;5030890;28;20472;-81
2023/05/10 01:22:37;;;;;;;20.70;16.33;;;;;;;;;;5030622;28;20467;-81
2023/05/10 01:25:24;;;;;;;15.50;13.67;;;;;;;;;;5025297;28;20468;-81
2023/05/10 01:28:08;;;;;;;16.43;13.90;;;;;;;;;;5032448;28;20479;-81
2023/05/10 01:30:41;;;;;;;18.00;15.03;;;;;;;;;;5033295;28;20488;-81
2023/05/10 01:33:11;;;;;;;19.37;14.40;;;;;;;;;;5031053;28;20834;-81
2023/05/10 01:35:40;;;;;;;17.33;13.40;;;;;;;;;;5034092;28;20488;-81
2023/05/10 01:38:10;;;;;;;16.70;14.90;;;;;;;;;;5032585;28;20499;-81
2023/05/10 01:40:40;;;;;;;17.03;11.63;;;;;;;;;;5031610;28;20483;-81
2023/05/10 01:43:12;;;;;;;12.77;11.33;;;;;;;;;;5032051;28;20927;-82
2023/05/10 01:45:44;;;;;;;12.23;10.13;;;;;;;;;;5032748;28;20472;-81
2023/05/10 01:48:12;;;;;;;13.50;10.50;;;;;;;;;;5032410;28;20500;-81
2023/05/10 01:50:40;;;;;;;12.60;10.07;;;;;;;;;;5034300;28;20476;-81
2023/05/10 01:53:07;;;;;;;9.67;8.73;;;;;;;;;;5032898;28;20444;-81
2023/05/10 01:55:36;;;;;;;12.53;10.60;;;;;;;;;;5038070;28;20472;-81
2023/05/10 01:58:04;;;;;;;10.37;9.37;;;;;;;;;;5032301;28;20867;-80
2023/05/10 02:00:32;;;;;;;11.00;9.90;;;;;;;;;;5028711;28;20550;-81
2023/05/10 02:02:58;;;;;;;11.40;10.20;;;;;;;;;;5032612;28;20448;-81
2023/05/10 02:05:27;;;;;;;11.27;10.13;;;;;;;;;;5032263;28;20481;-81
2023/05/10 02:07:54;;;;;;;12.57;10.47;;;;;;;;;;5030887;28;20960;-81
2023/05/10 02:10:21;;;;;;;11.67;10.37;;;;;;;;;;5031836;28;20480;-81
2023/05/10 02:12:49;;;;;;;13.73;10.07;;;;;;;;;;5032384;28;20449;-81
2023/05/10 02:15:19;;;;;;;12.97;10.30;;;;;;;;;;5031646;28;20986;-81
2023/05/10 02:17:47;;;;;;;11.53;9.17;;;;;;;;;;5030186;28;21006;-80
2023/05/10 02:20:14;;;;;;;10.37;9.27;;;;;;;;;;5031484;28;20848;-81
2023/05/10 02:22:42;;;;;;;9.70;8.37;;;;;;;;;;5032554;28;20448;-80
2023/05/10 02:25:09;;;;;;;10.13;9.13;;;;;;;;;;5034115;28;20472;-80
2023/05/10 02:27:37;;;;;;;13.77;8.60;;;;;;;;;;5030854;28;20477;-80
2023/05/10 02:30:04;;;;;;;8.80;8.00;;;;;;;;;;5028318;28;20844;-80
2023/05/10 02:32:30;;;;;;;10.20;8.80;;;;;;;;;;5032201;28;20457;-81
2023/05/10 02:34:58;;;;;;;9.43;8.23;;;;;;;;;;5027102;28;20551;-80
2023/05/10 02:37:24;;;;;;;10.60;9.50;;;;;;;;;;5028913;28;20485;-80
2023/05/10 02:39:54;;;;;;;9.97;8.90;;;;;;;;;;5031757;28;20472;-80
2023/05/10 02:42:23;;;;;;;13.13;8.67;;;;;;;;;;5025940;28;20473;-80
2023/05/10 02:44:51;;;;;;;12.23;9.77;;;;;;;;;;5034607;28;20480;-80
2023/05/10 02:47:18;;;;;;;11.77;9.33;;;;;;;;;;5035702;28;20851;-80
2023/05/10 02:49:45;;;;;;;14.63;9.17;;;;;;;;;;5036353;28;20464;-80
2023/05/10 02:52:12;;;;;;;10.80;9.20;;;;;;;;;;5036293;28;20444;-80
2023/05/10 02:54:42;;;;;;;9.07;8.03;;;;;;;;;;5035241;28;20468;-81
2023/05/10 02:57:11;;;;;;;11.30;9.00;;;;;;;;;;5036356;28;20488;-80
2023/05/10 02:59:38;;;;;;;10.73;9.17;;;;;;;;;;5037180;28;20466;-80
2023/05/10 03:02:04;;;;;;;10.97;9.23;;;;;;;;;;5034651;28;20452;-80
2023/05/10 03:04:30;;;;;;;11.20;9.10;;;;;;;;;;5035084;28;20468;-80
2023/05/10 03:06:57;;;;;;;10.70;9.00;;;;;;;;;;5035843;28;20468;-80
2023/05/10 03:09:23;;;;;;;12.47;8.33;;;;;;;;;;5034991;28;20444;-80
2023/05/10 03:11:53;;;;;;;10.00;8.73;;;;;;;;;;5035078;28;20454;-80
2023/05/10 03:14:31;;;;;;;11.83;9.67;;;;;;;;;;5039712;28;20460;-80
2023/05/10 03:16:59;;;;;;;8.87;7.77;;;;;;;;;;5036455;28;20437;-80
2023/05/10 03:19:28;;;;;;;9.77;7.93;;;;;;;;;;5034729;28;20473;-80
2023/05/10 03:21:56;;;;;;;9.50;8.57;;;;;;;;;;5034938;28;20456;-80
2023/05/10 03:24:24;;;;;;;9.60;8.20;;;;;;;;;;5040234;28;20453;-80
2023/05/10 03:26:51;;;;;;;10.50;8.50;;;;;;;;;;5037074;28;20461;-80
2023/05/10 03:29:18;;;;;;;9.83;8.57;;;;;;;;;;5028997;28;20461;-80
2023/05/10 03:31:46;;;;;;;9.97;8.93;;;;;;;;;;5033528;28;20539;-80
2023/05/10 03:34:12;;;;;;;10.53;8.50;;;;;;;;;;5034270;28;20823;-80
2023/05/10 03:36:38;;;;;;;11.00;7.60;;;;;;;;;;5033030;28;20460;-80
2023/05/10 03:39:05;;;;;;;10.93;8.70;;;;;;;;;;5036898;28;21005;-80
2023/05/10 03:41:31;;;;;;;9.67;8.37;;;;;;;;;;5034657;28;20472;-80
2023/05/10 03:43:57;;;;;;;10.40;8.80;;;;;;;;;;5032737;28;20475;-80
2023/05/10 03:46:23;;;;;;;8.70;7.80;;;;;;;;;;5033487;28;21291;-80
2023/05/10 03:48:51;;;;;;;8.73;7.90;;;;;;;;;;5033040;28;20480;-80
2023/05/10 03:51:17;;;;;;;9.90;8.00;;;;;;;;;;5033753;28;20481;-80
2023/05/10 03:53:44;;;;;;;9.60;8.60;;;;;;;;;;5034327;28;20487;-80
2023/05/10 03:56:10;;;;;;;11.07;8.93;;;;;;;;;;5032515;28;20480;-80
2023/05/10 03:58:37;;;;;;;9.03;8.13;;;;;;;;;;5035375;28;20484;-80
2023/05/10 04:01:03;;;;;;;9.60;7.90;;;;;;;;;;5036969;28;20471;-80
2023/05/10 04:03:30;;;;;;;12.77;8.73;;;;;;;;;;5034574;28;20456;-80
2023/05/10 04:06:01;;;;;;;10.80;8.43;;;;;;;;;;5033560;28;20472;-80
2023/05/10 04:08:27;;;;;;;11.23;9.10;;;;;;;;;;5033257;28;20806;-80
2023/05/10 04:10:54;;;;;;;13.00;9.03;;;;;;;;;;5034568;28;20476;-80
2023/05/10 04:13:20;;;;;;;10.70;8.90;;;;;;;;;;5032784;28;20862;-81
2023/05/10 04:15:47;;;;;;;12.47;9.33;;;;;;;;;;5033784;28;20488;-80
2023/05/10 04:18:13;;;;;;;12.77;8.50;;;;;;;;;;5034799;28;20488;-80
2023/05/10 04:20:39;;;;;;;13.47;9.40;;;;;;;;;;5033061;28;20480;-80
2023/05/10 04:23:07;;;;;;;12.33;9.20;;;;;;;;;;5029078;28;20464;-80
2023/05/10 04:25:34;;;;;;;12.83;9.30;;;;;;;;;;5033105;28;20986;-80
2023/05/10 04:28:01;;;;;;;11.57;10.47;;;;;;;;;;5034030;28;20473;-80
2023/05/10 04:30:29;;;;;;;10.70;8.90;;;;;;;;;;5033274;28;20476;-80
2023/05/10 04:32:55;;;;;;;10.60;9.17;;;;;;;;;;5030902;28;20444;-80
2023/05/10 04:35:21;;;;;;;16.20;10.10;;;;;;;;;;5033271;28;20480;-80
2023/05/10 04:37:48;;;;;;;13.23;9.90;;;;;;;;;;5032965;28;20480;-80
2023/05/10 04:40:15;;;;;;;13.63;10.20;;;;;;;;;;5032968;28;21036;-80
2023/05/10 04:42:42;;;;;;;11.10;9.37;;;;;;;;;;5031877;28;20453;-80
2023/05/10 04:45:09;;;;;;;11.07;9.07;;;;;;;;;;5035949;28;20476;-80
2023/05/10 04:47:36;;;;;;;13.13;10.87;;;;;;;;;;5034995;28;20993;-80
2023/05/10 04:50:03;;;;;;;14.47;8.80;;;;;;;;;;5032276;28;20468;-80
2023/05/10 04:52:29;;;;;;;12.53;9.70;;;;;;;;;;5033944;28;20453;-80
2023/05/10 04:54:56;;;;;;;11.20;9.07;;;;;;;;;;5027318;28;20495;-80
2023/05/10 04:57:23;;;;;;;9.07;8.10;;;;;;;;;;5033342;28;20484;-81
2023/05/10 04:59:50;;;;;;;9.53;8.37;;;;;;;;;;5032978;28;20473;-80
2023/05/10 05:02:16;;;;;;;12.57;8.63;;;;;;;;;;5032807;28;20460;-80
2023/05/10 05:04:42;;;;;;;11.20;8.80;;;;;;;;;;5030334;28;20472;-81
2023/05/10 05:07:08;;;;;;;11.87;9.23;;;;;;;;;;5031745;28;20845;-80
2023/05/10 05:09:35;;;;;;;13.33;9.70;;;;;;;;;;5031941;28;20459;-80
2023/05/10 05:12:01;;;;;;;9.77;8.77;;;;;;;;;;5033473;28;20548;-80
2023/05/10 05:14:29;;;;;;;14.03;9.70;;;;;;;;;;5028942;28;20464;-80
2023/05/10 05:16:55;;;;;;;10.67;8.77;;;;;;;;;;5033235;28;20448;-80
2023/05/10 05:19:22;;;;;;;13.40;9.87;;;;;;;;;;5032392;28;20476;-80
2023/05/10 05:21:48;;;;;;;11.77;9.37;;;;;;;;;;5028802;28;20449;-80
2023/05/10 05:24:14;;;;;;;12.60;9.03;;;;;;;;;;5032657;28;20444;-79
2023/05/10 05:26:41;;;;;;;12.20;10.93;;;;;;;;;;5032719;28;20484;-79
2023/05/10 05:29:07;;;;;;;10.07;8.60;;;;;;;;;;5033135;28;20459;-79
2023/05/10 05:31:35;;;;;;;12.93;10.50;;;;;;;;;;5031756;28;20491;-81
2023/05/10 05:34:01;;;;;;;12.23;10.67;;;;;;;;;;5032604;28;20456;-80
2023/05/10 05:36:27;;;;;;;13.50;10.17;;;;;;;;;;5032068;28;20531;-80
2023/05/10 05:38:54;;;;;;;12.23;9.50;;;;;;;;;;5032688;28;20503;-80
2023/05/10 05:41:21;;;;;;;13.90;9.70;;;;;;;;;;5032015;28;21011;-79
2023/05/10 05:43:47;;;;;;;11.90;10.70;;;;;;;;;;5034701;28;20518;-80
2023/05/10 05:46:13;;;;;;;11.00;9.90;;;;;;;;;;5032119;28;21002;-79
2023/05/10 05:48:41;;;;;;;14.50;10.30;;;;;;;;;;5028155;28;20487;-80
2023/05/10 05:51:07;;;;;;;13.43;10.27;;;;;;;;;;5031377;28;20485;-79
2023/05/10 05:53:34;;;;;;;15.33;11.97;;;;;;;;;;5030873;28;20460;-79
2023/05/10 05:56:00;;;;;;;16.20;11.07;;;;;;;;;;5029781;28;20554;-79
2023/05/10 05:58:26;;;;;;;14.43;11.97;;;;;;;;;;5030686;28;20488;-79
2023/05/10 06:00:53;;;;;;;19.37;9.70;;;;;;;;;;5032197;28;20480;-79
2023/05/10 06:03:19;;;;;;;14.13;10.83;;;;;;;;;;5030084;28;20448;-80
2023/05/10 06:05:47;;;;;;;15.33;11.27;;;;;;;;;;5031876;28;20850;-80
2023/05/10 06:08:13;;;;;;;14.00;11.00;;;;;;;;;;5032632;28;20475;-79
2023/05/10 06:10:40;;;;;;;14.50;11.93;;;;;;;;;;5031956;28;20473;-80
2023/05/10 06:13:06;;;;;;;13.30;11.73;;;;;;;;;;5032367;28;20452;-80
2023/05/10 06:15:33;;;;;;;12.93;11.50;;;;;;;;;;5027425;28;20477;-79
2023/05/10 06:17:59;;;;;;;13.93;12.43;;;;;;;;;;5031740;28;20932;-80
2023/05/10 06:20:26;;;;;;;16.60;13.00;;;;;;;;;;5033163;28;20467;-80
2023/05/10 06:22:53;;;;;;;15.33;11.90;;;;;;;;;;5036733;28;20449;-79
2023/05/10 06:25:20;;;;;;;15.80;12.20;;;;;;;;;;5035212;28;20982;-80
2023/05/10 06:27:46;;;;;;;15.23;12.30;;;;;;;;;;5035621;28;20480;-80
2023/05/10 06:30:15;;;;;;;12.90;11.70;;;;;;;;;;5032583;28;20482;-80
2023/05/10 06:32:41;;;;;;;17.03;11.10;;;;;;;;;;5036135;28;20440;-80
2023/05/10 06:35:08;;;;;;;17.27;11.03;;;;;;;;;;5035333;28;20484;-80
2023/05/10 06:37:34;;;;;;;15.70;12.40;;;;;;;;;;5035838;28;20482;-80
2023/05/10 06:40:03;;;;;;;15.70;13.33;;;;;;;;;;5035179;28;20476;-80
2023/05/10 06:42:29;;;;;;;15.63;11.40;;;;;;;;;;5035784;28;20456;-80
2023/05/10 06:44:56;;;;;;;13.13;10.67;;;;;;;;;;5035912;28;20476;-80
2023/05/10 06:47:22;;;;;;;12.40;10.37;;;;;;;;;;5035074;28;20499;-80
2023/05/10 06:49:48;;;;;;;14.63;11.67;;;;;;;;;;5035221;28;20465;-80
2023/05/10 06:52:15;;;;;;;12.80;11.03;;;;;;;;;;5035463;28;20456;-80
2023/05/10 06:54:41;;;;;;;14.03;10.07;;;;;;;;;;5034015;28;20464;-80
2023/05/10 06:57:09;;;;;;;12.40;11.10;;;;;;;;;;5034794;28;20477;-80
2023/05/10 06:59:36;;;;;;;11.60;9.90;;;;;;;;;;5032862;28;20464;-80
2023/05/10 07:02:02;;;;;;;10.23;9.17;;;;;;;;;;5034687;28;20455;-80
2023/05/10 07:04:28;;;;;;;11.30;9.53;;;;;;;;;;5033452;28;20540;-80
2023/05/10 07:06:55;;;;;;;11.83;9.37;;;;;;;;;;5035065;28;20444;-80
2023/05/10 07:09:21;;;;;;;12.20;10.23;;;;;;;;;;5034000;28;20464;-80
2023/05/10 07:11:47;;;;;;;11.00;9.40;;;;;;;;;;5035233;28;20471;-80
2023/05/10 07:14:15;;;;;;;10.83;8.70;;;;;;;;;;5033753;28;20456;-80
2023/05/10 07:16:41;;;;;;;7.33;6.33;;;;;;;;;;5034676;28;20842;-80
2023/05/10 07:19:08;;;;;;;7.20;6.20;;;;;;;;;;5034438;28;20484;-80
2023/05/10 07:21:35;;;;;;;5.43;4.87;;;;;;;;;;5034796;28;20467;-80
2023/05/10 07:24:01;;;;;;;6.33;4.80;;;;;;;;;;5034964;28;20847;-80
2023/05/10 07:26:28;;;;;;;7.17;6.30;;;;;;;;;;5034256;28;20477;-80
2023/05/10 07:28:54;;;;;;;7.73;6.33;;;;;;;;;;5034621;28;20504;-80
2023/05/10 07:31:22;;;;;;;10.50;6.07;;;;;;;;;;5049343;28;20522;-80
2023/05/10 07:33:48;;;;;;;6.23;5.37;;;;;;;;;;5035016;28;20448;-81
2023/05/10 07:36:15;;;;;;;9.00;7.40;;;;;;;;;;5034415;28;20477;-80
2023/05/10 07:38:41;;;;;;;9.27;7.10;;;;;;;;;;5034768;28;20465;-80
2023/05/10 07:41:07;;;;;;;6.60;5.93;;;;;;;;;;5034168;28;20879;-81
2023/05/10 07:43:33;;;;;;;7.77;6.33;;;;;;;;;;5033380;28;20548;-81
2023/05/10 07:46:00;;;;;;;8.20;6.90;;;;;;;;;;5034030;28;20548;-80
2023/05/10 07:48:28;;;;;;;13.10;7.10;;;;;;;;;;5033468;28;20490;-80
2023/05/10 07:50:54;;;;;;;9.57;7.67;;;;;;;;;;5030683;28;20496;-80
2023/05/10 07:53:20;;;;;;;9.63;7.73;;;;;;;;;;5033277;28;20461;-80
2023/05/10 07:55:50;;;;;;;8.20;7.00;;;;;;;;;;5033929;28;20849;-80
2023/05/10 07:58:17;;;;;;;9.50;7.20;;;;;;;;;;5032228;28;20476;-80
2023/05/10 08:00:43;;;;;;;9.60;6.80;;;;;;;;;;5029429;28;21481;-80
2023/05/10 08:03:09;;;;;;;7.60;6.17;;;;;;;;;;5030581;28;20445;-80
2023/05/10 08:05:37;;;;;;;8.93;6.20;;;;;;;;;;5033749;28;20481;-81
2023/05/10 08:08:03;;;;;;;7.67;6.27;;;;;;;;;;5033953;28;21008;-80
2023/05/10 08:10:30;;;;;;;6.77;5.53;;;;;;;;;;5031272;28;20459;-80
2023/05/10 08:12:56;;;;;;;7.03;6.03;;;;;;;;;;5026132;28;20460;-81
2023/05/10 08:15:22;;;;;;;8.33;6.20;;;;;;;;;;5032957;28;20472;-81
2023/05/10 08:17:49;;;;;;;7.57;6.30;;;;;;;;;;5026263;28;20460;-80
2023/05/10 08:20:17;;;;;;;7.30;5.80;;;;;;;;;;5032274;28;20488;-80
2023/05/10 08:22:45;;;;;;;9.83;7.20;;;;;;;;;;5027396;28;20461;-80
2023/05/10 08:25:12;;;;;;;10.07;7.70;;;;;;;;;;5032348;28;20817;-80
2023/05/10 08:27:38;;;;;;;8.53;6.80;;;;;;;;;;5034009;28;20448;-80
2023/05/10 08:30:05;;;;;;;9.53;7.33;;;;;;;;;;5032778;28;20480;-80
2023/05/10 08:32:31;;;;;;;11.73;7.30;;;;;;;;;;5032628;28;20838;-80
2023/05/10 08:34:57;;;;;;;9.30;6.70;;;;;;;;;;5031826;28;20518;-80
2023/05/10 08:37:23;;;;;;;9.07;7.83;;;;;;;;;;5033659;28;20476;-80
2023/05/10 08:39:51;;;;;;;8.97;6.80;;;;;;;;;;5033298;28;20480;-80
2023/05/10 08:42:19;;;;;;;9.63;7.23;;;;;;;;;;5033706;28;20453;-80
2023/05/10 08:44:47;;;;;;;9.10;6.23;;;;;;;;;;5031121;28;20506;-80
2023/05/10 08:47:15;;;;;;;8.70;7.17;;;;;;;;;;5032761;28;20488;-80
2023/05/10 08:49:42;;;;;;;5.83;5.10;;;;;;;;;;5027827;28;20465;-80
2023/05/10 08:52:09;;;;;;;6.03;4.60;;;;;;;;;;5030493;28;20444;-80
2023/05/10 08:57:04;;;;;;;5.27;3.97;;;;;;;;;;5038881;28;20473;-80
2023/05/10 08:59:30;;;;;;;6.10;4.67;;;;;;;;;;5032951;28;20472;-80
2023/05/10 09:01:58;;;;;;;5.43;4.70;;;;;;;;;;5033502;28;20463;-80
2023/05/10 09:04:25;;;;;;;5.80;3.67;;;;;;;;;;5028091;28;20531;-80
2023/05/10 09:06:51;;;;;;;4.80;4.17;;;;;;;;;;5033405;28;20431;-80
2023/05/10 09:09:17;;;;;;;9.50;4.10;;;;;;;;;;5030318;28;20457;-81
2023/05/10 09:11:44;;;;;;;5.30;4.00;;;;;;;;;;5029635;28;20455;-80
2023/05/10 09:14:13;;;;;;;5.10;3.07;;;;;;;;;;5030656;28;20464;-80
2023/05/10 09:16:41;;;;;;;6.13;4.43;;;;;;;;;;5032032;28;20459;-80
2023/05/10 09:19:10;;;;;;;5.00;4.03;;;;;;;;;;5014091;28;20452;-78
2023/05/10 09:21:37;;;;;;;6.23;4.20;;;;;;;;;;5032202;28;20522;-80
2023/05/10 09:24:04;;;;;;;4.70;3.73;;;;;;;;;;5017451;28;20567;-80
2023/05/10 09:26:31;;;;;;;4.40;3.20;;;;;;;;;;5033095;28;20474;-80
2023/05/10 09:28:58;;;;;;;4.87;2.90;;;;;;;;;;5032680;28;20427;-79
2023/05/10 09:31:43;;;;;;;3.23;2.30;;;;;;;;;;5027118;28;20836;-80
2023/05/10 09:34:10;;;;;;;2.77;2.57;;;;;;;;;;5030029;28;20462;-79
2023/05/10 09:36:37;;;;;;;3.27;2.97;;;;;;;;;;5029708;28;20467;-79
2023/05/10 09:39:03;;;;;;;5.33;2.83;;;;;;;;;;5026401;28;20503;-79
2023/05/10 09:41:29;;;;;;;3.87;2.87;;;;;;;;;;5032585;28;20484;-79
2023/05/10 09:43:57;;;;;;;6.87;4.80;;;;;;;;;;5031824;28;20556;-79
2023/05/10 09:46:24;;;;;;;7.70;5.33;;;;;;;;;;5031442;28;20452;-80
2023/05/10 09:48:52;;;;;;;5.27;4.10;;;;;;;;;;5030845;28;20476;-80
2023/05/10 09:51:22;;;;;;;4.00;3.33;;;;;;;;;;5032113;28;20452;-80
2023/05/10 09:53:50;;;;;;;5.73;3.10;;;;;;;;;;5023239;28;20484;-79
2023/05/10 09:56:33;;;;;;;4.33;3.30;;;;;;;;;;5031677;28;20456;-80
2023/05/10 09:59:03;;;;;;;3.37;3.07;;;;;;;;;;5025558;28;20476;-80
2023/05/10 10:01:30;;;;;;;4.30;3.30;;;;;;;;;;5032960;28;20486;-80
2023/05/10 10:03:58;;;;;;;6.07;3.60;;;;;;;;;;5031781;28;20534;-80
2023/05/10 10:06:25;;;;;;;4.30;3.70;;;;;;;;;;5032661;28;20419;-80
2023/05/10 10:08:51;;;;;;;7.80;4.60;;;;;;;;;;5026405;28;21000;-80
2023/05/10 10:11:17;;;;;;;3.53;3.20;;;;;;;;;;5031204;28;20825;-80
2023/05/10 10:13:44;;;;;;;3.03;2.73;;;;;;;;;;5031902;28;20853;-80
2023/05/10 10:16:10;;;;;;;5.40;4.60;;;;;;;;;;5033082;28;20958;-80
2023/05/10 10:18:38;;;;;;;5.67;4.13;;;;;;;;;;5028620;28;20491;-78
2023/05/10 10:21:06;;;;;;;4.90;4.40;;;;;;;;;;5027552;28;20485;-78
2023/05/10 10:23:32;;;;;;;6.47;4.07;;;;;;;;;;5033986;28;20484;-78
2023/05/10 10:25:59;;;;;;;3.60;3.13;;;;;;;;;;5032166;28;20946;-80
2023/05/10 10:28:33;;;;;;;6.00;3.73;;;;;;;;;;5030888;28;20451;-78
2023/05/10 10:31:01;;;;;;;5.13;3.53;;;;;;;;;;5032252;28;20435;-78
2023/05/10 10:33:37;;;;;;;5.67;4.70;;;;;;;;;;5031988;28;20985;-78
2023/05/10 10:36:04;;;;;;;5.20;3.77;;;;;;;;;;5029062;28;20444;-80
2023/05/10 10:38:46;;;;;;;4.07;3.27;;;;;;;;;;5036279;28;20468;-78
2023/05/10 10:41:28;;;;;;;4.10;3.67;;;;;;;;;;5029017;28;20476;-78
2023/05/10 10:44:09;;;;;;;5.73;4.43;;;;;;;;;;5028342;28;20453;-78
2023/05/10 10:46:56;;;;;;;4.73;3.73;;;;;;;;;;5023537;28;20423;-78
2023/05/10 10:49:22;;;;;;;5.30;4.00;;;;;;;;;;5023822;28;20462;-78
2023/05/10 10:52:05;;;;;;;4.50;3.87;;;;;;;;;;5029179;28;20468;-78
2023/05/10 10:54:33;;;;;;;5.40;4.90;;;;;;;;;;5030251;28;21014;-78
2023/05/10 10:57:13;;;;;;;4.03;3.43;;;;;;;;;;5010598;28;20469;-78
2023/05/10 10:59:42;;;;;;;4.37;3.60;;;;;;;;;;5033566;28;20419;-79
2023/05/10 11:02:09;;;;;;;5.10;3.53;;;;;;;;;;5032107;28;20427;-79
2023/05/10 11:04:42;;;;;;;4.70;3.67;;;;;;;;;;5017175;28;20497;-80
2023/05/10 11:07:20;;;;;;;4.60;4.13;;;;;;;;;;5034365;28;20822;-80
2023/05/10 11:09:49;;;;;;;7.00;3.83;;;;;;;;;;5032994;28;20438;-80
2023/05/10 11:12:17;;;;;;;5.37;4.47;;;;;;;;;;5025393;28;20469;-80
2023/05/10 11:14:43;;;;;;;9.97;5.27;;;;;;;;;;5027358;28;20482;-79
2023/05/10 11:17:26;;;;;;;5.57;4.90;;;;;;;;;;5034809;28;20475;-80
2023/05/10 11:20:09;;;;;;;3.00;2.70;;;;;;;;;;5031914;28;20477;-79
2023/05/10 11:22:50;;;;;;;3.30;2.93;;;;;;;;;;5033474;28;21123;-79
2023/05/10 11:25:18;;;;;;;3.90;3.20;;;;;;;;;;5035290;28;20455;-78
2023/05/10 11:27:48;;;;;;;2.60;2.40;;;;;;;;;;5034727;28;20455;-79
2023/05/10 11:30:15;;;;;;;2.10;2.00;;;;;;;;;;5033477;28;20536;-78
2023/05/10 11:32:41;;;;;;;1.80;1.70;;;;;;;;;;5013707;28;20953;-78
2023/05/10 11:35:08;;;;;;;1.67;1.57;;;;;;;;;;5034542;28;20451;-79
2023/05/10 11:37:36;;;;;;;2.07;1.93;;;;;;;;;;5031545;28;20560;-78
2023/05/10 11:40:03;;;;;;;1.30;1.20;;;;;;;;;;5027500;28;20434;-80
2023/05/10 11:42:29;;;;;;;2.20;1.50;;;;;;;;;;5034465;28;20444;-80
2023/05/10 11:44:57;;;;;;;1.50;1.40;;;;;;;;;;5034994;28;20514;-80
2023/05/10 11:47:23;;;;;;;1.70;1.60;;;;;;;;;;5034281;28;20468;-80
2023/05/10 11:49:51;;;;;;;0.90;0.90;;;;;;;;;;5037495;28;20448;-79
2023/05/10 11:52:20;;;;;;;0.90;0.90;;;;;;;;;;5034904;28;20840;-79
2023/05/10 11:54:47;;;;;;;1.00;0.90;;;;;;;;;;5034287;28;20538;-79
2023/05/10 11:57:13;;;;;;;0.60;0.60;;;;;;;;;;5033929;28;20486;-79
2023/05/10 11:59:40;;;;;;;0.80;0.80;;;;;;;;;;5038608;28;20464;-79
2023/05/10 12:02:08;;;;;;;0.67;0.67;;;;;;;;;;5030369;28;20457;-79
2023/05/10 12:04:34;;;;;;;3.00;0.70;;;;;;;;;;5035677;28;20834;-80
2023/05/10 12:07:02;;;;;;;0.83;0.73;;;;;;;;;;5031737;28;20443;-79
2023/05/10 12:09:28;;;;;;;0.77;0.77;;;;;;;;;;5034330;28;20797;-79
2023/05/10 12:11:56;;;;;;;0.73;0.73;;;;;;;;;;5033297;28;20453;-79
2023/05/10 12:14:24;;;;;;;0.80;0.80;;;;;;;;;;5034110;28;20990;-79
2023/05/10 12:16:50;;;;;;;1.20;1.10;;;;;;;;;;5015165;28;20938;-81
2023/05/10 12:19:21;;;;;;;1.07;1.07;;;;;;;;;;5029662;28;20793;-79
2023/05/10 12:21:47;;;;;;;1.50;1.37;;;;;;;;;;5033558;28;20477;-80
2023/05/10 12:24:16;;;;;;;1.20;1.17;;;;;;;;;;5033735;28;20447;-79
2023/05/10 12:26:42;;;;;;;1.37;1.27;;;;;;;;;;5034089;28;20456;-79
2023/05/10 12:29:16;;;;;;;1.40;1.30;;;;;;;;;;5033030;28;20466;-79
2023/05/10 12:31:55;;;;;;;4.33;1.60;;;;;;;;;;5032791;28;20881;-79
2023/05/10 12:34:38;;;;;;;2.47;2.27;;;;;;;;;;5033674;28;20480;-79
2023/05/10 12:37:05;;;;;;;3.20;2.80;;;;;;;;;;5028550;28;20496;-80
2023/05/10 12:39:39;;;;;;;6.20;3.53;;;;;;;;;;5033717;28;20453;-80
2023/05/10 12:42:06;;;;;;;3.27;2.97;;;;;;;;;;5029753;28;20805;-79
2023/05/10 12:44:33;;;;;;;2.90;2.70;;;;;;;;;;5032474;28;20481;-80
2023/05/10 12:46:59;;;;;;;4.10;3.20;;;;;;;;;;5030578;28;20545;-79
2023/05/10 12:49:26;;;;;;;4.10;3.70;;;;;;;;;;5027328;28;20820;-80
2023/05/10 12:51:54;;;;;;;3.83;3.40;;;;;;;;;;5033133;28;20785;-79
2023/05/10 12:54:20;;;;;;;4.97;4.47;;;;;;;;;;5030883;28;20479;-80
2023/05/10 12:56:46;;;;;;;6.80;5.73;;;;;;;;;;5032695;28;20821;-79
2023/05/10 12:59:13;;;;;;;7.90;6.43;;;;;;;;;;5033762;28;20455;-79
2023/05/10 13:01:39;;;;;;;10.57;7.30;;;;;;;;;;5025411;28;20493;-79
2023/05/10 13:04:06;;;;;;;9.37;6.77;;;;;;;;;;5030134;28;20977;-80
2023/05/10 13:06:33;;;;;;;9.67;8.13;;;;;;;;;;5033623;28;20416;-80
2023/05/10 13:09:01;;;;;;;7.87;7.17;;;;;;;;;;5031778;28;20452;-79
2023/05/10 13:11:30;;;;;;;8.67;7.50;;;;;;;;;;5029284;28;20457;-79
2023/05/10 13:13:56;;;;;;;10.30;8.77;;;;;;;;;;5032857;28;20481;-79
2023/05/10 13:16:23;;;;;;;6.40;5.80;;;;;;;;;;5033815;28;20449;-80
2023/05/10 13:18:49;;;;;;;8.10;7.30;;;;;;;;;;5028405;28;20479;-80
2023/05/10 13:21:16;;;;;;;8.43;6.40;;;;;;;;;;5033164;28;20481;-78
2023/05/10 13:23:44;;;;;;;8.93;7.70;;;;;;;;;;5032634;28;20563;-81
2023/05/10 13:26:13;;;;;;;13.80;8.27;;;;;;;;;;5033124;28;20476;-80
2023/05/10 13:28:39;;;;;;;8.10;7.30;;;;;;;;;;5031360;28;20470;-81
2023/05/10 13:31:05;;;;;;;7.70;7.00;;;;;;;;;;5031806;28;20416;-80
2023/05/10 13:33:32;;;;;;;8.23;7.20;;;;;;;;;;5025405;28;21003;-80
2023/05/10 13:35:58;;;;;;;7.60;6.90;;;;;;;;;;5029781;28;20472;-80
2023/05/10 13:38:24;;;;;;;8.47;7.23;;;;;;;;;;5029406;28;20468;-78
2023/05/10 13:40:52;;;;;;;9.00;7.40;;;;;;;;;;5032425;28;20861;-79
2023/05/10 13:43:20;;;;;;;11.50;6.67;;;;;;;;;;5028033;28;20557;-78
2023/05/10 13:45:46;;;;;;;7.77;6.60;;;;;;;;;;5013925;28;20443;-78
2023/05/10 13:48:13;;;;;;;7.30;6.60;;;;;;;;;;5030774;28;20443;-78
2023/05/10 13:50:39;;;;;;;6.90;6.20;;;;;;;;;;5027398;28;20441;-78
2023/05/10 13:53:06;;;;;;;6.77;6.07;;;;;;;;;;5021785;28;20997;-78
2023/05/10 13:55:33;;;;;;;6.80;5.73;;;;;;;;;;5023383;28;20496;-78
2023/05/10 13:57:59;;;;;;;5.43;4.87;;;;;;;;;;5031695;28;20505;-78
2023/05/10 14:00:27;;;;;;;5.23;4.70;;;;;;;;;;5013996;28;20958;-78
2023/05/10 14:02:54;;;;;;;5.30;4.70;;;;;;;;;;5032315;28;20509;-79
2023/05/10 14:05:21;;;;;;;5.53;4.70;;;;;;;;;;5028493;28;20444;-78
2023/05/10 14:07:47;;;;;;;5.37;4.57;;;;;;;;;;5027795;28;20473;-78
2023/05/10 14:10:13;;;;;;;6.43;4.33;;;;;;;;;;5025035;28;20444;-78
2023/05/10 14:12:40;;;;;;;7.20;5.60;;;;;;;;;;5027507;28;20851;-78
2023/05/10 14:15:07;;;;;;;5.80;5.20;;;;;;;;;;5033793;28;20473;-78
2023/05/10 14:17:34;;;;;;;5.40;4.80;;;;;;;;;;5027431;28;20864;-78
2023/05/10 14:20:01;;;;;;;7.50;5.10;;;;;;;;;;5029795;28;20444;-79
2023/05/10 14:22:28;;;;;;;6.70;5.30;;;;;;;;;;5030121;28;20526;-79
2023/05/10 14:24:55;;;;;;;7.10;5.20;;;;;;;;;;5028811;28;20469;-79
2023/05/10 14:27:21;;;;;;;4.87;4.13;;;;;;;;;;5029823;28;20505;-79
2023/05/10 14:29:48;;;;;;;8.90;4.73;;;;;;;;;;5032015;28;20464;-78
2023/05/10 14:32:14;;;;;;;4.23;2.90;;;;;;;;;;5026137;28;20450;-78
2023/05/10 14:34:42;;;;;;;3.30;3.00;;;;;;;;;;5032552;28;20967;-79
2023/05/10 14:37:10;;;;;;;2.57;2.37;;;;;;;;;;5028782;28;20428;-78
2023/05/10 14:39:37;;;;;;;2.93;2.60;;;;;;;;;;5032871;28;20943;-79